3 Oak — V7YJ3 — position and weather

sailwx.info

Track history (hours):
 
Tides and Currents Weather Stations Pressure Air Temp Water Temp Dewpoint Dewpoint Depression Visibility Wind Speed Wind Dir Waves Ship Positions

3 Oak

Last reported at 2017-Sep-21 18:09 UTC. Time now 2017-Sep-23 07:44 UTC.
Position N 33°54' W 008°53'.

Length 125 m; draft 6.8 m.

Type: Cargo ship. MMSI: 538004672.

Date/timePositionNaut miles runAvg speedWind from/ knotsBaromVisibWave heightAir tempDewpointWater temp
2017-Sep-21 18:09N 33°54' W 008°53'39913.0
2017-Sep-20 11:26N 29°05' W 014°15'713.0
2017-Sep-20 10:51N 28°59' W 014°20'512.8
2017-Sep-20 10:27N 28°54' W 014°23'612.8
2017-Sep-20 10:00N 28°50' W 014°27'612.9
2017-Sep-20 09:30N 28°44' W 014°31'713.0
2017-Sep-20 08:59N 28°39' W 014°35'612.9
2017-Sep-20 08:30N 28°33' W 014°39'612.8
2017-Sep-20 08:00N 28°28' W 014°43'612.5
2017-Sep-20 07:30N 28°23' W 014°47'612.4
2017-Sep-20 07:00N 28°18' W 014°51'612.8
2017-Sep-20 06:30N 28°12' W 014°53'612.5
2017-Sep-20 06:00N 28°06' W 014°56'612.8
2017-Sep-20 05:30N 27°60' W 014°58'712.9
2017-Sep-20 05:00N 27°54' W 015°01'612.6
2017-Sep-20 04:30N 27°48' W 015°03'612.8
2017-Sep-20 04:00N 27°42' W 015°05'713.0
2017-Sep-20 03:30N 27°35' W 015°07'612.8
2017-Sep-20 03:00N 27°29' W 015°09'1112.8
2017-Sep-20 02:10N 27°19' W 015°12'5213.3
2017-Sep-19 22:15N 26°32' W 015°38'813.2
2017-Sep-19 21:38N 26°26' W 015°44'313.1
2017-Sep-19 21:25N 26°23' W 015°45'4312.8
2017-Sep-19 18:01N 25°46' W 016°10'112.7
2017-Sep-19 17:57N 25°45' W 016°10'612.6
2017-Sep-19 17:28N 25°40' W 016°14'712.5
2017-Sep-19 16:55N 25°35' W 016°18'612.2
2017-Sep-19 16:28N 25°30' W 016°22'  
Track history (hours):
 
Tides and Currents Weather Stations Pressure Air Temp Water Temp Dewpoint Dewpoint Depression Visibility Wind Speed Wind Dir Waves Ship Positions

3 Oak

Last reported at 2017-Sep-21 18:09 UTC. Time now 2017-Sep-23 07:44 UTC.
Position N 33°54' W 008°53'.

Length 125 m; draft 6.8 m.

Type: Cargo ship. MMSI: 538004672.

Date/timePositionNaut miles runAvg speedWind from/ knotsBaromVisibWave heightAir tempDewpointWater temp
2017-Sep-21 18:09N 33°54' W 008°53'39913.0
2017-Sep-20 11:26N 29°05' W 014°15'713.0
2017-Sep-20 10:51N 28°59' W 014°20'512.8
2017-Sep-20 10:27N 28°54' W 014°23'612.8
2017-Sep-20 10:00N 28°50' W 014°27'612.9
2017-Sep-20 09:30N 28°44' W 014°31'713.0
2017-Sep-20 08:59N 28°39' W 014°35'612.9
2017-Sep-20 08:30N 28°33' W 014°39'612.8
2017-Sep-20 08:00N 28°28' W 014°43'612.5
2017-Sep-20 07:30N 28°23' W 014°47'612.4
2017-Sep-20 07:00N 28°18' W 014°51'612.8
2017-Sep-20 06:30N 28°12' W 014°53'612.5
2017-Sep-20 06:00N 28°06' W 014°56'612.8
2017-Sep-20 05:30N 27°60' W 014°58'712.9
2017-Sep-20 05:00N 27°54' W 015°01'612.6
2017-Sep-20 04:30N 27°48' W 015°03'612.8
2017-Sep-20 04:00N 27°42' W 015°05'713.0
2017-Sep-20 03:30N 27°35' W 015°07'612.8
2017-Sep-20 03:00N 27°29' W 015°09'1112.8
2017-Sep-20 02:10N 27°19' W 015°12'5213.3
2017-Sep-19 22:15N 26°32' W 015°38'813.2
2017-Sep-19 21:38N 26°26' W 015°44'313.1
2017-Sep-19 21:25N 26°23' W 015°45'4312.8
2017-Sep-19 18:01N 25°46' W 016°10'112.7
2017-Sep-19 17:57N 25°45' W 016°10'612.6
2017-Sep-19 17:28N 25°40' W 016°14'712.5
2017-Sep-19 16:55N 25°35' W 016°18'612.2
2017-Sep-19 16:28N 25°30' W 016°22'  

Dump ship's entire track history